sensor_id;sensor_type;location;lat;lon;timestamp;P1;durP1;ratioP1;P2;durP2;ratioP2
82703;SDS011;72427;42.000;21.464;2024-02-21T00:00:49;18.77;;;10.52;;
82703;SDS011;72427;42.000;21.464;2024-02-21T00:03:15;22.45;;;10.25;;
82703;SDS011;72427;42.000;21.464;2024-02-21T00:05:41;18.05;;;9.98;;
82703;SDS011;72427;42.000;21.464;2024-02-21T00:08:07;17.48;;;10.13;;
82703;SDS011;72427;42.000;21.464;2024-02-21T00:10:33;18.55;;;10.75;;
82703;SDS011;72427;42.000;21.464;2024-02-21T00:13:00;16.33;;;9.27;;
82703;SDS011;72427;42.000;21.464;2024-02-21T00:15:26;17.10;;;9.90;;
82703;SDS011;72427;42.000;21.464;2024-02-21T00:17:52;17.27;;;8.52;;
82703;SDS011;72427;42.000;21.464;2024-02-21T00:20:18;16.30;;;9.52;;
82703;SDS011;72427;42.000;21.464;2024-02-21T00:22:45;16.02;;;9.77;;
82703;SDS011;72427;42.000;21.464;2024-02-21T00:25:11;16.48;;;9.10;;
82703;SDS011;72427;42.000;21.464;2024-02-21T00:27:37;15.38;;;8.02;;
82703;SDS011;72427;42.000;21.464;2024-02-21T00:30:06;18.27;;;9.38;;
82703;SDS011;72427;42.000;21.464;2024-02-21T00:32:32;15.95;;;9.23;;
82703;SDS011;72427;42.000;21.464;2024-02-21T00:35:01;16.83;;;9.27;;
82703;SDS011;72427;42.000;21.464;2024-02-21T00:37:27;15.93;;;10.05;;
82703;SDS011;72427;42.000;21.464;2024-02-21T00:39:53;17.42;;;9.23;;
82703;SDS011;72427;42.000;21.464;2024-02-21T00:42:19;15.95;;;8.85;;
82703;SDS011;72427;42.000;21.464;2024-02-21T00:44:46;18.05;;;9.50;;
82703;SDS011;72427;42.000;21.464;2024-02-21T00:47:12;15.25;;;9.25;;
82703;SDS011;72427;42.000;21.464;2024-02-21T00:49:38;19.33;;;10.77;;
82703;SDS011;72427;42.000;21.464;2024-02-21T00:52:04;19.42;;;10.82;;
82703;SDS011;72427;42.000;21.464;2024-02-21T00:54:30;17.75;;;10.55;;
82703;SDS011;72427;42.000;21.464;2024-02-21T00:56:56;18.35;;;9.88;;
82703;SDS011;72427;42.000;21.464;2024-02-21T00:59:22;15.82;;;8.65;;
82703;SDS011;72427;42.000;21.464;2024-02-21T01:01:48;19.33;;;8.77;;
82703;SDS011;72427;42.000;21.464;2024-02-21T01:04:14;15.48;;;8.82;;
82703;SDS011;72427;42.000;21.464;2024-02-21T01:06:40;14.27;;;8.65;;
82703;SDS011;72427;42.000;21.464;2024-02-21T01:09:09;14.55;;;8.75;;
82703;SDS011;72427;42.000;21.464;2024-02-21T01:11:35;16.15;;;8.15;;
82703;SDS011;72427;42.000;21.464;2024-02-21T01:14:01;15.45;;;8.90;;
82703;SDS011;72427;42.000;21.464;2024-02-21T01:16:27;14.98;;;9.27;;
82703;SDS011;72427;42.000;21.464;2024-02-21T01:18:53;16.35;;;8.85;;
82703;SDS011;72427;42.000;21.464;2024-02-21T01:21:19;16.92;;;8.85;;
82703;SDS011;72427;42.000;21.464;2024-02-21T01:23:45;16.45;;;8.98;;
82703;SDS011;72427;42.000;21.464;2024-02-21T01:26:11;17.13;;;9.88;;
82703;SDS011;72427;42.000;21.464;2024-02-21T01:28:39;18.90;;;9.95;;
82703;SDS011;72427;42.000;21.464;2024-02-21T01:31:05;18.67;;;10.00;;
82703;SDS011;72427;42.000;21.464;2024-02-21T01:33:32;16.25;;;9.68;;
82703;SDS011;72427;42.000;21.464;2024-02-21T01:36:03;17.92;;;10.02;;
82703;SDS011;72427;42.000;21.464;2024-02-21T01:38:29;17.45;;;9.02;;
82703;SDS011;72427;42.000;21.464;2024-02-21T01:40:57;16.45;;;10.23;;
82703;SDS011;72427;42.000;21.464;2024-02-21T01:43:23;19.10;;;10.55;;
82703;SDS011;72427;42.000;21.464;2024-02-21T01:45:50;16.10;;;9.35;;
82703;SDS011;72427;42.000;21.464;2024-02-21T01:48:17;18.77;;;9.95;;
82703;SDS011;72427;42.000;21.464;2024-02-21T01:50:46;18.45;;;11.13;;
82703;SDS011;72427;42.000;21.464;2024-02-21T01:53:22;19.83;;;11.18;;
82703;SDS011;72427;42.000;21.464;2024-02-21T01:55:48;18.33;;;9.80;;
82703;SDS011;72427;42.000;21.464;2024-02-21T01:58:15;22.63;;;11.15;;
82703;SDS011;72427;42.000;21.464;2024-02-21T02:00:45;19.77;;;10.82;;
82703;SDS011;72427;42.000;21.464;2024-02-21T02:03:11;17.25;;;9.95;;
82703;SDS011;72427;42.000;21.464;2024-02-21T02:05:45;19.80;;;9.80;;
82703;SDS011;72427;42.000;21.464;2024-02-21T02:08:20;19.30;;;10.93;;
82703;SDS011;72427;42.000;21.464;2024-02-21T02:10:49;18.17;;;9.85;;
82703;SDS011;72427;42.000;21.464;2024-02-21T02:13:15;18.70;;;9.57;;
82703;SDS011;72427;42.000;21.464;2024-02-21T02:15:42;16.58;;;9.60;;
82703;SDS011;72427;42.000;21.464;2024-02-21T02:18:08;20.55;;;10.40;;
82703;SDS011;72427;42.000;21.464;2024-02-21T02:20:35;16.85;;;9.20;;
82703;SDS011;72427;42.000;21.464;2024-02-21T02:23:07;16.65;;;9.52;;
82703;SDS011;72427;42.000;21.464;2024-02-21T02:25:35;19.27;;;10.55;;
82703;SDS011;72427;42.000;21.464;2024-02-21T02:28:02;15.73;;;9.77;;
82703;SDS011;72427;42.000;21.464;2024-02-21T02:30:31;17.98;;;8.65;;
82703;SDS011;72427;42.000;21.464;2024-02-21T02:32:57;20.00;;;9.90;;
82703;SDS011;72427;42.000;21.464;2024-02-21T02:35:23;18.65;;;8.85;;
82703;SDS011;72427;42.000;21.464;2024-02-21T02:37:49;20.60;;;10.73;;
82703;SDS011;72427;42.000;21.464;2024-02-21T02:40:16;18.67;;;9.50;;
82703;SDS011;72427;42.000;21.464;2024-02-21T02:42:42;20.45;;;10.20;;
82703;SDS011;72427;42.000;21.464;2024-02-21T02:45:08;21.27;;;9.60;;
82703;SDS011;72427;42.000;21.464;2024-02-21T02:47:34;17.40;;;9.60;;
82703;SDS011;72427;42.000;21.464;2024-02-21T02:50:01;17.60;;;9.63;;
82703;SDS011;72427;42.000;21.464;2024-02-21T02:52:27;18.38;;;9.73;;
82703;SDS011;72427;42.000;21.464;2024-02-21T02:54:53;19.23;;;10.10;;
82703;SDS011;72427;42.000;21.464;2024-02-21T02:57:21;20.15;;;10.25;;
82703;SDS011;72427;42.000;21.464;2024-02-21T02:59:50;17.75;;;9.63;;
82703;SDS011;72427;42.000;21.464;2024-02-21T03:02:16;24.25;;;11.38;;
82703;SDS011;72427;42.000;21.464;2024-02-21T03:04:43;21.85;;;10.90;;
82703;SDS011;72427;42.000;21.464;2024-02-21T03:07:09;22.73;;;10.90;;
82703;SDS011;72427;42.000;21.464;2024-02-21T03:09:36;19.50;;;10.07;;
82703;SDS011;72427;42.000;21.464;2024-02-21T03:12:03;23.35;;;11.43;;
82703;SDS011;72427;42.000;21.464;2024-02-21T03:14:29;22.75;;;11.18;;
82703;SDS011;72427;42.000;21.464;2024-02-21T03:16:55;20.90;;;10.45;;
82703;SDS011;72427;42.000;21.464;2024-02-21T03:19:21;21.08;;;11.73;;
82703;SDS011;72427;42.000;21.464;2024-02-21T03:21:47;22.20;;;10.80;;
82703;SDS011;72427;42.000;21.464;2024-02-21T03:24:14;25.65;;;12.05;;
82703;SDS011;72427;42.000;21.464;2024-02-21T03:26:40;26.42;;;12.15;;
82703;SDS011;72427;42.000;21.464;2024-02-21T03:29:07;27.15;;;12.70;;
82703;SDS011;72427;42.000;21.464;2024-02-21T03:31:34;24.75;;;12.63;;
82703;SDS011;72427;42.000;21.464;2024-02-21T03:34:00;27.30;;;13.55;;
82703;SDS011;72427;42.000;21.464;2024-02-21T03:36:26;26.67;;;12.80;;
82703;SDS011;72427;42.000;21.464;2024-02-21T03:38:53;26.55;;;12.77;;
82703;SDS011;72427;42.000;21.464;2024-02-21T03:41:19;22.95;;;12.73;;
82703;SDS011;72427;42.000;21.464;2024-02-21T03:43:45;25.95;;;13.02;;
82703;SDS011;72427;42.000;21.464;2024-02-21T03:46:11;29.80;;;14.40;;
82703;SDS011;72427;42.000;21.464;2024-02-21T03:48:37;29.02;;;13.73;;
82703;SDS011;72427;42.000;21.464;2024-02-21T03:51:04;31.40;;;15.07;;
82703;SDS011;72427;42.000;21.464;2024-02-21T03:53:30;32.28;;;13.18;;
82703;SDS011;72427;42.000;21.464;2024-02-21T03:55:56;39.60;;;18.85;;
82703;SDS011;72427;42.000;21.464;2024-02-21T03:58:24;40.00;;;18.90;;
82703;SDS011;72427;42.000;21.464;2024-02-21T04:00:50;38.92;;;18.00;;
82703;SDS011;72427;42.000;21.464;2024-02-21T04:03:17;35.20;;;17.95;;
82703;SDS011;72427;42.000;21.464;2024-02-21T04:05:43;31.85;;;15.82;;
82703;SDS011;72427;42.000;21.464;2024-02-21T04:08:09;31.25;;;15.82;;
82703;SDS011;72427;42.000;21.464;2024-02-21T04:10:35;30.88;;;15.02;;
82703;SDS011;72427;42.000;21.464;2024-02-21T04:13:01;27.70;;;14.07;;
82703;SDS011;72427;42.000;21.464;2024-02-21T04:15:27;28.60;;;13.98;;
82703;SDS011;72427;42.000;21.464;2024-02-21T04:17:53;29.30;;;14.57;;
82703;SDS011;72427;42.000;21.464;2024-02-21T04:20:19;31.40;;;14.30;;
82703;SDS011;72427;42.000;21.464;2024-02-21T04:22:45;31.92;;;14.73;;
82703;SDS011;72427;42.000;21.464;2024-02-21T04:25:11;33.67;;;14.85;;
82703;SDS011;72427;42.000;21.464;2024-02-21T04:27:41;23.83;;;13.68;;
82703;SDS011;72427;42.000;21.464;2024-02-21T04:30:07;30.45;;;14.32;;
82703;SDS011;72427;42.000;21.464;2024-02-21T04:32:34;37.45;;;14.48;;
82703;SDS011;72427;42.000;21.464;2024-02-21T04:35:00;33.47;;;13.90;;
82703;SDS011;72427;42.000;21.464;2024-02-21T04:37:26;28.00;;;13.77;;
82703;SDS011;72427;42.000;21.464;2024-02-21T04:39:52;30.15;;;13.00;;
82703;SDS011;72427;42.000;21.464;2024-02-21T04:42:20;28.60;;;14.43;;
82703;SDS011;72427;42.000;21.464;2024-02-21T04:44:46;24.85;;;12.57;;
82703;SDS011;72427;42.000;21.464;2024-02-21T04:47:12;26.63;;;13.73;;
82703;SDS011;72427;42.000;21.464;2024-02-21T04:49:38;31.95;;;13.63;;
82703;SDS011;72427;42.000;21.464;2024-02-21T04:52:04;24.83;;;12.57;;
82703;SDS011;72427;42.000;21.464;2024-02-21T04:54:30;27.75;;;14.75;;
82703;SDS011;72427;42.000;21.464;2024-02-21T04:56:56;23.65;;;13.88;;
82703;SDS011;72427;42.000;21.464;2024-02-21T04:59:22;29.52;;;13.38;;
82703;SDS011;72427;42.000;21.464;2024-02-21T05:01:48;27.35;;;13.80;;
82703;SDS011;72427;42.000;21.464;2024-02-21T05:04:14;32.10;;;13.35;;
82703;SDS011;72427;42.000;21.464;2024-02-21T05:06:43;29.77;;;12.50;;
82703;SDS011;72427;42.000;21.464;2024-02-21T05:09:09;27.15;;;13.50;;
82703;SDS011;72427;42.000;21.464;2024-02-21T05:11:35;31.05;;;13.55;;
82703;SDS011;72427;42.000;21.464;2024-02-21T05:14:03;25.88;;;14.40;;
82703;SDS011;72427;42.000;21.464;2024-02-21T05:16:29;26.27;;;13.25;;
82703;SDS011;72427;42.000;21.464;2024-02-21T05:18:55;30.70;;;14.88;;
82703;SDS011;72427;42.000;21.464;2024-02-21T05:21:24;32.00;;;14.85;;
82703;SDS011;72427;42.000;21.464;2024-02-21T05:23:50;33.92;;;16.73;;
82703;SDS011;72427;42.000;21.464;2024-02-21T05:26:22;32.25;;;15.07;;
82703;SDS011;72427;42.000;21.464;2024-02-21T05:28:48;31.85;;;15.52;;
82703;SDS011;72427;42.000;21.464;2024-02-21T05:31:17;29.42;;;13.27;;
82703;SDS011;72427;42.000;21.464;2024-02-21T05:33:44;34.53;;;15.90;;
82703;SDS011;72427;42.000;21.464;2024-02-21T05:36:10;31.70;;;15.80;;
82703;SDS011;72427;42.000;21.464;2024-02-21T05:38:36;30.95;;;15.13;;
82703;SDS011;72427;42.000;21.464;2024-02-21T05:41:02;33.30;;;15.73;;
82703;SDS011;72427;42.000;21.464;2024-02-21T05:43:29;31.30;;;16.65;;
82703;SDS011;72427;42.000;21.464;2024-02-21T05:45:55;30.63;;;16.42;;
82703;SDS011;72427;42.000;21.464;2024-02-21T05:48:24;30.70;;;16.23;;
82703;SDS011;72427;42.000;21.464;2024-02-21T05:50:50;37.90;;;18.10;;
82703;SDS011;72427;42.000;21.464;2024-02-21T05:53:16;47.97;;;20.10;;
82703;SDS011;72427;42.000;21.464;2024-02-21T05:55:42;41.53;;;18.10;;
82703;SDS011;72427;42.000;21.464;2024-02-21T05:58:09;72.43;;;20.13;;
82703;SDS011;72427;42.000;21.464;2024-02-21T06:00:38;41.22;;;16.75;;
82703;SDS011;72427;42.000;21.464;2024-02-21T06:03:04;53.05;;;20.83;;
82703;SDS011;72427;42.000;21.464;2024-02-21T06:05:30;45.70;;;21.98;;
82703;SDS011;72427;42.000;21.464;2024-02-21T06:07:57;45.67;;;21.20;;
82703;SDS011;72427;42.000;21.464;2024-02-21T06:10:23;43.33;;;20.48;;
82703;SDS011;72427;42.000;21.464;2024-02-21T06:12:49;49.55;;;23.30;;
82703;SDS011;72427;42.000;21.464;2024-02-21T06:15:15;53.40;;;21.85;;
82703;SDS011;72427;42.000;21.464;2024-02-21T06:17:41;43.00;;;21.23;;
82703;SDS011;72427;42.000;21.464;2024-02-21T06:20:07;44.35;;;19.63;;
82703;SDS011;72427;42.000;21.464;2024-02-21T06:22:33;48.15;;;23.55;;
82703;SDS011;72427;42.000;21.464;2024-02-21T06:24:59;53.90;;;25.73;;
82703;SDS011;72427;42.000;21.464;2024-02-21T06:27:27;48.00;;;23.38;;
82703;SDS011;72427;42.000;21.464;2024-02-21T06:29:53;40.30;;;21.70;;
82703;SDS011;72427;42.000;21.464;2024-02-21T06:32:19;44.75;;;23.02;;
82703;SDS011;72427;42.000;21.464;2024-02-21T06:34:45;48.67;;;25.52;;
82703;SDS011;72427;42.000;21.464;2024-02-21T06:37:11;45.10;;;23.10;;
82703;SDS011;72427;42.000;21.464;2024-02-21T06:39:37;44.90;;;24.52;;
82703;SDS011;72427;42.000;21.464;2024-02-21T06:42:03;39.65;;;23.85;;
82703;SDS011;72427;42.000;21.464;2024-02-21T06:44:29;44.33;;;23.40;;
82703;SDS011;72427;42.000;21.464;2024-02-21T06:46:57;48.58;;;23.70;;
82703;SDS011;72427;42.000;21.464;2024-02-21T06:49:24;42.72;;;23.38;;
82703;SDS011;72427;42.000;21.464;2024-02-21T06:51:50;44.72;;;21.83;;
82703;SDS011;72427;42.000;21.464;2024-02-21T06:54:16;44.83;;;23.70;;
82703;SDS011;72427;42.000;21.464;2024-02-21T06:56:42;44.67;;;22.95;;
82703;SDS011;72427;42.000;21.464;2024-02-21T06:59:08;45.17;;;22.85;;
82703;SDS011;72427;42.000;21.464;2024-02-21T07:01:34;38.95;;;20.95;;
82703;SDS011;72427;42.000;21.464;2024-02-21T07:04:00;28.85;;;16.70;;
82703;SDS011;72427;42.000;21.464;2024-02-21T07:06:26;32.67;;;17.67;;
82703;SDS011;72427;42.000;21.464;2024-02-21T07:08:52;30.02;;;15.73;;
82703;SDS011;72427;42.000;21.464;2024-02-21T07:11:18;35.22;;;19.15;;
82703;SDS011;72427;42.000;21.464;2024-02-21T07:13:44;43.72;;;24.58;;
82703;SDS011;72427;42.000;21.464;2024-02-21T07:16:10;41.15;;;20.95;;
82703;SDS011;72427;42.000;21.464;2024-02-21T07:18:36;39.33;;;21.13;;
82703;SDS011;72427;42.000;21.464;2024-02-21T07:21:02;31.15;;;17.30;;
82703;SDS011;72427;42.000;21.464;2024-02-21T07:23:28;31.70;;;17.15;;
82703;SDS011;72427;42.000;21.464;2024-02-21T07:25:54;30.23;;;15.48;;
82703;SDS011;72427;42.000;21.464;2024-02-21T07:28:20;23.45;;;13.05;;
82703;SDS011;72427;42.000;21.464;2024-02-21T07:30:46;27.35;;;16.40;;
82703;SDS011;72427;42.000;21.464;2024-02-21T07:33:12;21.52;;;12.70;;
82703;SDS011;72427;42.000;21.464;2024-02-21T07:35:39;21.50;;;11.80;;
82703;SDS011;72427;42.000;21.464;2024-02-21T07:38:06;28.88;;;16.45;;
82703;SDS011;72427;42.000;21.464;2024-02-21T07:40:37;21.85;;;16.05;;
82703;SDS011;72427;42.000;21.464;2024-02-21T07:43:03;23.02;;;15.35;;
82703;SDS011;72427;42.000;21.464;2024-02-21T07:45:29;21.08;;;14.50;;
82703;SDS011;72427;42.000;21.464;2024-02-21T07:47:55;21.90;;;14.15;;
82703;SDS011;72427;42.000;21.464;2024-02-21T07:50:21;24.67;;;17.08;;
82703;SDS011;72427;42.000;21.464;2024-02-21T07:52:47;27.48;;;17.30;;
82703;SDS011;72427;42.000;21.464;2024-02-21T07:55:13;24.13;;;15.38;;
82703;SDS011;72427;42.000;21.464;2024-02-21T07:57:39;25.58;;;16.10;;
82703;SDS011;72427;42.000;21.464;2024-02-21T08:00:06;23.23;;;16.77;;
82703;SDS011;72427;42.000;21.464;2024-02-21T08:02:34;25.95;;;18.10;;
82703;SDS011;72427;42.000;21.464;2024-02-21T08:05:01;27.20;;;17.23;;
82703;SDS011;72427;42.000;21.464;2024-02-21T08:07:28;30.40;;;19.73;;
82703;SDS011;72427;42.000;21.464;2024-02-21T08:09:55;32.97;;;20.83;;
82703;SDS011;72427;42.000;21.464;2024-02-21T08:12:21;38.60;;;24.80;;
82703;SDS011;72427;42.000;21.464;2024-02-21T08:14:47;34.13;;;23.08;;
82703;SDS011;72427;42.000;21.464;2024-02-21T08:17:13;31.60;;;22.35;;
82703;SDS011;72427;42.000;21.464;2024-02-21T08:19:39;37.50;;;25.70;;
82703;SDS011;72427;42.000;21.464;2024-02-21T08:22:05;41.33;;;26.15;;
82703;SDS011;72427;42.000;21.464;2024-02-21T08:24:32;46.83;;;28.30;;
82703;SDS011;72427;42.000;21.464;2024-02-21T08:26:58;38.88;;;24.85;;
82703;SDS011;72427;42.000;21.464;2024-02-21T08:29:24;36.58;;;24.20;;
82703;SDS011;72427;42.000;21.464;2024-02-21T08:31:50;34.67;;;23.60;;
82703;SDS011;72427;42.000;21.464;2024-02-21T08:34:16;30.70;;;21.75;;
82703;SDS011;72427;42.000;21.464;2024-02-21T08:36:43;31.48;;;22.15;;
82703;SDS011;72427;42.000;21.464;2024-02-21T08:39:09;31.27;;;21.48;;
82703;SDS011;72427;42.000;21.464;2024-02-21T08:41:35;34.90;;;22.60;;
82703;SDS011;72427;42.000;21.464;2024-02-21T08:44:01;40.08;;;25.95;;
82703;SDS011;72427;42.000;21.464;2024-02-21T08:46:28;39.50;;;26.05;;
82703;SDS011;72427;42.000;21.464;2024-02-21T08:48:54;38.00;;;25.15;;
82703;SDS011;72427;42.000;21.464;2024-02-21T08:51:20;34.97;;;23.60;;
82703;SDS011;72427;42.000;21.464;2024-02-21T08:53:46;35.28;;;20.38;;
82703;SDS011;72427;42.000;21.464;2024-02-21T08:56:13;30.10;;;19.15;;
82703;SDS011;72427;42.000;21.464;2024-02-21T08:58:39;36.58;;;19.15;;
82703;SDS011;72427;42.000;21.464;2024-02-21T09:01:08;32.17;;;18.20;;
82703;SDS011;72427;42.000;21.464;2024-02-21T09:03:37;31.23;;;17.98;;
82703;SDS011;72427;42.000;21.464;2024-02-21T09:06:04;41.97;;;23.13;;
82703;SDS011;72427;42.000;21.464;2024-02-21T09:08:31;37.58;;;19.33;;
82703;SDS011;72427;42.000;21.464;2024-02-21T09:10:57;33.00;;;19.77;;
82703;SDS011;72427;42.000;21.464;2024-02-21T09:13:23;30.92;;;19.08;;
82703;SDS011;72427;42.000;21.464;2024-02-21T09:15:49;34.85;;;20.02;;
82703;SDS011;72427;42.000;21.464;2024-02-21T09:18:15;20.98;;;11.13;;
82703;SDS011;72427;42.000;21.464;2024-02-21T09:20:44;22.42;;;12.07;;
82703;SDS011;72427;42.000;21.464;2024-02-21T09:23:10;22.88;;;12.38;;
82703;SDS011;72427;42.000;21.464;2024-02-21T09:25:36;25.30;;;13.30;;
82703;SDS011;72427;42.000;21.464;2024-02-21T09:28:03;25.13;;;11.77;;
82703;SDS011;72427;42.000;21.464;2024-02-21T09:30:31;20.08;;;9.82;;
82703;SDS011;72427;42.000;21.464;2024-02-21T09:32:57;12.60;;;8.25;;
82703;SDS011;72427;42.000;21.464;2024-02-21T09:35:27;21.23;;;8.63;;
82703;SDS011;72427;42.000;21.464;2024-02-21T09:37:53;17.63;;;8.02;;
82703;SDS011;72427;42.000;21.464;2024-02-21T09:40:20;14.32;;;7.70;;
82703;SDS011;72427;42.000;21.464;2024-02-21T09:42:46;11.90;;;7.45;;
82703;SDS011;72427;42.000;21.464;2024-02-21T09:45:24;16.30;;;7.78;;
82703;SDS011;72427;42.000;21.464;2024-02-21T09:48:11;16.42;;;8.10;;
82703;SDS011;72427;42.000;21.464;2024-02-21T09:50:41;17.90;;;7.07;;
82703;SDS011;72427;42.000;21.464;2024-02-21T09:53:09;15.65;;;7.85;;
82703;SDS011;72427;42.000;21.464;2024-02-21T09:55:38;18.40;;;8.57;;
82703;SDS011;72427;42.000;21.464;2024-02-21T09:58:06;14.25;;;7.13;;
82703;SDS011;72427;42.000;21.464;2024-02-21T10:00:32;16.08;;;7.07;;
82703;SDS011;72427;42.000;21.464;2024-02-21T10:02:59;15.85;;;7.55;;
82703;SDS011;72427;42.000;21.464;2024-02-21T10:05:25;13.40;;;6.75;;
82703;SDS011;72427;42.000;21.464;2024-02-21T10:07:52;17.33;;;7.38;;
82703;SDS011;72427;42.000;21.464;2024-02-21T10:10:18;13.13;;;6.68;;
82703;SDS011;72427;42.000;21.464;2024-02-21T10:12:52;16.98;;;7.28;;
82703;SDS011;72427;42.000;21.464;2024-02-21T10:15:25;16.27;;;8.25;;
82703;SDS011;72427;42.000;21.464;2024-02-21T10:17:58;13.23;;;6.88;;
82703;SDS011;72427;42.000;21.464;2024-02-21T10:20:25;13.10;;;6.47;;
82703;SDS011;72427;42.000;21.464;2024-02-21T10:23:00;11.23;;;6.07;;
82703;SDS011;72427;42.000;21.464;2024-02-21T10:25:27;11.32;;;6.45;;
82703;SDS011;72427;42.000;21.464;2024-02-21T10:27:53;12.60;;;6.32;;
82703;SDS011;72427;42.000;21.464;2024-02-21T10:30:19;11.98;;;6.40;;
82703;SDS011;72427;42.000;21.464;2024-02-21T10:32:53;12.18;;;6.03;;
82703;SDS011;72427;42.000;21.464;2024-02-21T10:35:25;14.70;;;7.20;;
82703;SDS011;72427;42.000;21.464;2024-02-21T10:37:52;13.02;;;6.05;;
82703;SDS011;72427;42.000;21.464;2024-02-21T10:40:22;10.77;;;5.50;;
82703;SDS011;72427;42.000;21.464;2024-02-21T10:42:48;12.93;;;7.18;;
82703;SDS011;72427;42.000;21.464;2024-02-21T10:45:15;15.05;;;7.60;;
82703;SDS011;72427;42.000;21.464;2024-02-21T10:47:41;10.10;;;6.53;;
82703;SDS011;72427;42.000;21.464;2024-02-21T10:50:10;13.25;;;6.93;;
82703;SDS011;72427;42.000;21.464;2024-02-21T10:55:10;9.43;;;5.65;;
82703;SDS011;72427;42.000;21.464;2024-02-21T10:57:39;13.27;;;6.70;;
82703;SDS011;72427;42.000;21.464;2024-02-21T11:00:06;22.20;;;16.60;;
82703;SDS011;72427;42.000;21.464;2024-02-21T11:02:33;10.90;;;5.85;;
82703;SDS011;72427;42.000;21.464;2024-02-21T11:04:59;10.73;;;6.72;;
82703;SDS011;72427;42.000;21.464;2024-02-21T11:07:28;12.65;;;6.90;;
82703;SDS011;72427;42.000;21.464;2024-02-21T11:09:55;15.20;;;7.88;;
82703;SDS011;72427;42.000;21.464;2024-02-21T11:12:21;15.20;;;9.35;;
82703;SDS011;72427;42.000;21.464;2024-02-21T11:14:48;13.43;;;9.00;;
82703;SDS011;72427;42.000;21.464;2024-02-21T11:17:14;16.35;;;8.73;;
82703;SDS011;72427;42.000;21.464;2024-02-21T11:19:41;15.00;;;8.18;;
82703;SDS011;72427;42.000;21.464;2024-02-21T11:22:13;14.18;;;8.25;;
82703;SDS011;72427;42.000;21.464;2024-02-21T11:24:41;12.85;;;8.27;;
82703;SDS011;72427;42.000;21.464;2024-02-21T11:27:14;13.75;;;8.88;;
82703;SDS011;72427;42.000;21.464;2024-02-21T11:29:44;15.23;;;8.93;;
82703;SDS011;72427;42.000;21.464;2024-02-21T11:32:11;13.63;;;8.15;;
82703;SDS011;72427;42.000;21.464;2024-02-21T11:34:37;18.40;;;9.38;;
82703;SDS011;72427;42.000;21.464;2024-02-21T11:37:12;15.32;;;9.57;;
82703;SDS011;72427;42.000;21.464;2024-02-21T11:39:40;11.77;;;8.18;;
82703;SDS011;72427;42.000;21.464;2024-02-21T11:42:07;14.30;;;8.00;;
82703;SDS011;72427;42.000;21.464;2024-02-21T11:44:37;14.70;;;8.25;;
82703;SDS011;72427;42.000;21.464;2024-02-21T11:47:03;16.30;;;8.40;;
82703;SDS011;72427;42.000;21.464;2024-02-21T11:49:29;14.35;;;8.57;;
82703;SDS011;72427;42.000;21.464;2024-02-21T11:51:59;15.93;;;9.00;;
82703;SDS011;72427;42.000;21.464;2024-02-21T11:54:34;18.33;;;8.25;;
82703;SDS011;72427;42.000;21.464;2024-02-21T11:57:01;14.05;;;8.30;;
82703;SDS011;72427;42.000;21.464;2024-02-21T11:59:31;17.60;;;8.82;;
82703;SDS011;72427;42.000;21.464;2024-02-21T12:01:58;14.40;;;7.40;;
82703;SDS011;72427;42.000;21.464;2024-02-21T12:04:24;15.15;;;7.65;;
82703;SDS011;72427;42.000;21.464;2024-02-21T12:06:50;13.05;;;8.30;;
82703;SDS011;72427;42.000;21.464;2024-02-21T12:09:18;13.13;;;8.18;;
82703;SDS011;72427;42.000;21.464;2024-02-21T12:11:44;16.58;;;11.05;;
82703;SDS011;72427;42.000;21.464;2024-02-21T12:14:11;12.88;;;8.90;;
82703;SDS011;72427;42.000;21.464;2024-02-21T12:16:41;15.27;;;7.85;;
82703;SDS011;72427;42.000;21.464;2024-02-21T12:19:09;15.68;;;7.80;;
82703;SDS011;72427;42.000;21.464;2024-02-21T12:21:37;18.38;;;8.85;;
82703;SDS011;72427;42.000;21.464;2024-02-21T12:24:21;14.55;;;8.02;;
82703;SDS011;72427;42.000;21.464;2024-02-21T12:26:48;14.70;;;8.77;;
82703;SDS011;72427;42.000;21.464;2024-02-21T12:29:14;14.27;;;8.30;;
82703;SDS011;72427;42.000;21.464;2024-02-21T12:31:40;13.32;;;8.18;;
82703;SDS011;72427;42.000;21.464;2024-02-21T12:34:06;14.65;;;8.48;;
82703;SDS011;72427;42.000;21.464;2024-02-21T12:36:35;18.27;;;8.13;;
82703;SDS011;72427;42.000;21.464;2024-02-21T12:39:02;14.57;;;8.02;;
82703;SDS011;72427;42.000;21.464;2024-02-21T12:41:28;14.77;;;8.00;;
82703;SDS011;72427;42.000;21.464;2024-02-21T12:43:56;15.50;;;8.65;;
82703;SDS011;72427;42.000;21.464;2024-02-21T12:46:22;13.30;;;8.60;;
82703;SDS011;72427;42.000;21.464;2024-02-21T12:48:48;14.20;;;7.93;;
82703;SDS011;72427;42.000;21.464;2024-02-21T12:51:14;13.02;;;7.55;;
82703;SDS011;72427;42.000;21.464;2024-02-21T12:53:41;14.52;;;8.63;;
82703;SDS011;72427;42.000;21.464;2024-02-21T12:56:06;14.10;;;7.65;;
82703;SDS011;72427;42.000;21.464;2024-02-21T12:58:33;12.48;;;7.85;;
82703;SDS011;72427;42.000;21.464;2024-02-21T13:00:59;14.77;;;7.70;;
82703;SDS011;72427;42.000;21.464;2024-02-21T13:03:25;17.13;;;7.95;;
82703;SDS011;72427;42.000;21.464;2024-02-21T13:05:51;17.70;;;7.90;;
82703;SDS011;72427;42.000;21.464;2024-02-21T13:08:17;12.07;;;7.05;;
82703;SDS011;72427;42.000;21.464;2024-02-21T13:10:46;13.43;;;7.70;;
82703;SDS011;72427;42.000;21.464;2024-02-21T13:13:14;15.20;;;7.40;;
82703;SDS011;72427;42.000;21.464;2024-02-21T13:15:40;11.40;;;6.75;;
82703;SDS011;72427;42.000;21.464;2024-02-21T13:18:08;13.70;;;7.15;;
82703;SDS011;72427;42.000;21.464;2024-02-21T13:20:34;12.80;;;7.38;;
82703;SDS011;72427;42.000;21.464;2024-02-21T13:23:00;10.52;;;6.68;;
82703;SDS011;72427;42.000;21.464;2024-02-21T13:25:26;12.20;;;6.95;;
82703;SDS011;72427;42.000;21.464;2024-02-21T13:27:52;13.10;;;8.00;;
82703;SDS011;72427;42.000;21.464;2024-02-21T13:30:18;11.02;;;6.65;;
82703;SDS011;72427;42.000;21.464;2024-02-21T13:32:44;11.90;;;6.50;;
82703;SDS011;72427;42.000;21.464;2024-02-21T13:35:13;11.80;;;6.78;;
82703;SDS011;72427;42.000;21.464;2024-02-21T13:37:39;10.10;;;5.78;;
82703;SDS011;72427;42.000;21.464;2024-02-21T13:40:05;11.85;;;7.07;;
82703;SDS011;72427;42.000;21.464;2024-02-21T13:42:34;15.15;;;7.15;;
82703;SDS011;72427;42.000;21.464;2024-02-21T13:45:00;14.90;;;7.35;;
82703;SDS011;72427;42.000;21.464;2024-02-21T13:47:26;13.85;;;7.53;;
82703;SDS011;72427;42.000;21.464;2024-02-21T13:49:52;12.73;;;7.82;;
82703;SDS011;72427;42.000;21.464;2024-02-21T13:52:18;13.93;;;8.05;;
82703;SDS011;72427;42.000;21.464;2024-02-21T13:54:46;13.23;;;7.78;;
82703;SDS011;72427;42.000;21.464;2024-02-21T13:57:12;14.30;;;7.50;;
82703;SDS011;72427;42.000;21.464;2024-02-21T13:59:39;14.07;;;6.95;;
82703;SDS011;72427;42.000;21.464;2024-02-21T14:02:05;12.95;;;6.78;;
82703;SDS011;72427;42.000;21.464;2024-02-21T14:04:33;15.32;;;8.15;;
82703;SDS011;72427;42.000;21.464;2024-02-21T14:06:59;15.45;;;8.20;;
82703;SDS011;72427;42.000;21.464;2024-02-21T14:09:25;14.32;;;8.57;;
82703;SDS011;72427;42.000;21.464;2024-02-21T14:11:51;12.15;;;7.55;;
82703;SDS011;72427;42.000;21.464;2024-02-21T14:14:17;14.32;;;7.40;;
82703;SDS011;72427;42.000;21.464;2024-02-21T14:16:43;11.27;;;7.88;;